createdAt,value
2019-02-17T00:01:48.510Z,50.58
2019-02-17T00:04:20.588Z,50.58
2019-02-17T00:06:52.407Z,50.42
2019-02-17T00:09:24.626Z,50.55
2019-02-17T00:11:56.666Z,50.38
2019-02-17T00:14:28.462Z,50.31
2019-02-17T00:17:01.423Z,50.08
2019-02-17T00:19:33.723Z,50.32
2019-02-17T00:22:07.001Z,50.44
2019-02-17T00:24:38.847Z,50.33
2019-02-17T00:27:10.644Z,50.12
2019-02-17T00:29:42.700Z,50.07
2019-02-17T00:32:14.629Z,50.01
2019-02-17T00:34:46.462Z,50.36
2019-02-17T00:37:18.510Z,50.51
2019-02-17T00:39:50.557Z,50.57
2019-02-17T00:42:22.360Z,50.64
2019-02-17T00:44:54.144Z,50.68
2019-02-17T00:47:25.913Z,50.68
2019-02-17T00:49:59.110Z,50.88
2019-02-17T00:52:30.858Z,51.13
2019-02-17T00:55:03.258Z,51.11
2019-02-17T00:57:35.065Z,51.27
2019-02-17T01:00:08.016Z,51.33
2019-02-17T01:02:41.391Z,51.58
2019-02-17T01:05:13.657Z,51.75
2019-02-17T01:07:45.419Z,51.79
2019-02-17T01:10:17.495Z,51.90
2019-02-17T01:12:49.235Z,52.07
2019-02-17T01:15:21.111Z,52.35
2019-02-17T01:17:52.881Z,52.51
2019-02-17T01:20:24.944Z,52.65
2019-02-17T01:22:56.811Z,52.86
2019-02-17T01:25:29.058Z,52.98
2019-02-17T01:28:00.990Z,53.11
2019-02-17T01:30:33.105Z,53.28
2019-02-17T01:33:05.306Z,53.35
2019-02-17T01:35:37.439Z,53.52
2019-02-17T01:38:09.191Z,53.57
2019-02-17T01:40:41.457Z,53.68
2019-02-17T01:43:13.252Z,53.81
2019-02-17T01:45:46.584Z,53.96
2019-02-17T01:48:18.316Z,54.21
2019-02-17T01:50:50.148Z,54.26
2019-02-17T01:53:21.910Z,54.38
2019-02-17T01:55:54.131Z,54.41
2019-02-17T01:58:25.927Z,54.44
2019-02-17T02:00:57.983Z,54.48
2019-02-17T02:03:29.806Z,54.50
2019-02-17T02:06:02.018Z,54.54
2019-02-17T02:08:33.763Z,54.62
2019-02-17T02:11:06.038Z,54.79
2019-02-17T02:13:37.757Z,54.94
2019-02-17T02:16:09.772Z,55.08
2019-02-17T02:18:41.549Z,55.19
2019-02-17T02:21:13.593Z,55.20
2019-02-17T02:23:45.381Z,55.26
2019-02-17T02:26:17.424Z,55.33
2019-02-17T02:28:49.223Z,55.34
2019-02-17T02:31:21.238Z,55.44
2019-02-17T02:33:53.174Z,55.55
2019-02-17T02:36:25.171Z,55.61
2019-02-17T02:38:56.959Z,55.64
2019-02-17T02:41:34.710Z,55.83
2019-02-17T02:44:02.763Z,55.76
2019-02-17T02:46:34.628Z,55.68
2019-02-17T02:49:06.435Z,55.76
2019-02-17T02:51:38.510Z,55.77
2019-02-17T02:54:10.261Z,55.82
2019-02-17T02:56:42.310Z,55.84
2019-02-17T02:59:14.073Z,55.85
2019-02-17T03:01:46.048Z,55.77
2019-02-17T03:04:17.901Z,55.83
2019-02-17T03:07:01.596Z,55.89
2019-02-17T03:09:33.410Z,55.88
2019-02-17T03:12:05.278Z,55.95
2019-02-17T03:14:37.079Z,56.04
2019-02-17T03:17:09.095Z,56.18
2019-02-17T03:19:41.007Z,56.24
2019-02-17T03:22:14.033Z,56.49
2019-02-17T03:24:45.916Z,56.67
2019-02-17T03:27:18.168Z,56.76
2019-02-17T03:29:49.995Z,56.76
2019-02-17T03:32:21.838Z,56.96
2019-02-17T03:34:53.749Z,57.10
2019-02-17T03:37:25.708Z,57.01
2019-02-17T03:39:57.686Z,57.08
2019-02-17T03:42:30.047Z,57.14
2019-02-17T03:45:01.845Z,57.17
2019-02-17T03:47:34.090Z,57.14
2019-02-17T03:50:06.265Z,57.17
2019-02-17T03:52:38.314Z,57.13
2019-02-17T03:55:12.925Z,57.11
2019-02-17T03:57:45.205Z,57.13
2019-02-17T04:00:17.620Z,56.93
2019-02-17T04:02:50.057Z,57.00
2019-02-17T04:05:21.820Z,57.05
2019-02-17T04:07:53.884Z,57.12
2019-02-17T04:10:25.645Z,56.90
2019-02-17T04:12:57.912Z,57.07
2019-02-17T04:15:29.686Z,56.98
2019-02-17T04:18:01.748Z,57.27
2019-02-17T04:20:33.554Z,57.36
2019-02-17T04:23:05.393Z,57.48
2019-02-17T04:25:37.198Z,57.54
2019-02-17T04:28:09.288Z,57.52
2019-02-17T04:30:41.050Z,57.75
2019-02-17T04:33:13.019Z,57.89
2019-02-17T04:35:44.911Z,58.00
2019-02-17T04:38:16.774Z,58.04
2019-02-17T04:40:48.555Z,58.04
2019-02-17T04:43:21.681Z,58.03
2019-02-17T04:45:54.570Z,58.02
2019-02-17T04:48:26.552Z,57.97
2019-02-17T04:50:58.315Z,58.03
2019-02-17T04:53:30.478Z,58.02
2019-02-17T04:56:02.260Z,58.07
2019-02-17T04:58:34.468Z,58.00
2019-02-17T05:01:06.287Z,58.06
2019-02-17T05:03:38.620Z,58.17
2019-02-17T05:06:10.498Z,58.33
2019-02-17T05:08:42.358Z,58.35
2019-02-17T05:11:14.210Z,58.43
2019-02-17T05:13:47.908Z,58.54
2019-02-17T05:16:19.740Z,58.57
2019-02-17T05:18:51.954Z,58.67
2019-02-17T05:21:23.694Z,58.79
2019-02-17T05:23:55.768Z,59.02
2019-02-17T05:26:27.540Z,59.03
2019-02-17T05:28:59.794Z,59.19
2019-02-17T05:31:31.582Z,59.28
2019-02-17T05:34:03.820Z,59.51
2019-02-17T05:36:35.631Z,59.68
2019-02-17T05:39:08.169Z,59.71
2019-02-17T05:41:39.959Z,59.83
2019-02-17T05:44:12.356Z,59.92
2019-02-17T05:46:44.190Z,59.81
2019-02-17T05:49:18.816Z,59.92
2019-02-17T05:51:50.616Z,60.21
2019-02-17T05:54:22.410Z,60.19
2019-02-17T05:56:54.177Z,60.41
2019-02-17T05:59:29.215Z,60.31
2019-02-17T06:02:00.913Z,60.05
2019-02-17T06:04:32.918Z,60.28
2019-02-17T06:07:04.819Z,60.20
2019-02-17T06:09:36.849Z,60.17
2019-02-17T06:12:08.622Z,60.29
2019-02-17T06:14:41.095Z,60.27
2019-02-17T06:17:12.858Z,60.22
2019-02-17T06:19:45.011Z,60.09
2019-02-17T06:22:16.779Z,60.13
2019-02-17T06:24:48.938Z,60.08
2019-02-17T06:27:20.760Z,60.02
2019-02-17T06:29:52.653Z,60.10
2019-02-17T06:32:24.389Z,60.02
2019-02-17T06:34:56.175Z,60.09
2019-02-17T06:37:27.931Z,59.95
2019-02-17T06:39:59.733Z,59.83
2019-02-17T06:42:31.474Z,59.77
2019-02-17T06:45:03.827Z,59.49
2019-02-17T06:47:36.528Z,59.23
2019-02-17T06:50:10.022Z,59.34
2019-02-17T06:52:43.569Z,59.02
2019-02-17T06:55:25.964Z,58.78
2019-02-17T06:57:57.743Z,58.63
2019-02-17T07:00:42.045Z,58.50
2019-02-17T07:03:14.499Z,58.34
2019-02-17T07:05:56.693Z,58.00
2019-02-17T07:08:29.779Z,57.86
2019-02-17T07:11:04.322Z,57.77
2019-02-17T07:13:36.145Z,57.48
2019-02-17T07:16:07.995Z,57.59
2019-02-17T07:18:39.944Z,57.65
2019-02-17T07:21:12.085Z,57.52
2019-02-17T07:23:43.907Z,57.84
2019-02-17T07:26:17.269Z,57.48
2019-02-17T07:28:49.495Z,57.67
2019-02-17T07:31:22.590Z,57.55
2019-02-17T07:33:54.936Z,57.72
2019-02-17T07:36:27.044Z,57.70
2019-02-17T07:38:58.798Z,57.28
2019-02-17T07:41:30.958Z,57.47
2019-02-17T07:44:04.792Z,57.31
2019-02-17T07:46:37.139Z,56.65
2019-02-17T07:49:08.962Z,56.55
2019-02-17T07:51:41.117Z,56.74
2019-02-17T07:54:12.953Z,56.74
2019-02-17T07:56:44.989Z,56.32
2019-02-17T07:59:16.740Z,56.56
2019-02-17T08:01:48.565Z,56.58
2019-02-17T08:04:20.351Z,56.60
2019-02-17T08:06:52.441Z,56.67
2019-02-17T08:09:24.244Z,56.51
2019-02-17T08:11:56.047Z,56.43
2019-02-17T08:14:27.876Z,56.39
2019-02-17T08:17:00.194Z,56.58
2019-02-17T08:19:32.006Z,56.50
2019-02-17T08:22:04.236Z,56.56
2019-02-17T08:24:36.007Z,56.47
2019-02-17T08:27:07.841Z,56.05
2019-02-17T08:29:39.637Z,55.85
2019-02-17T08:32:11.971Z,56.00
2019-02-17T08:34:43.774Z,56.10
2019-02-17T08:37:15.904Z,55.83
2019-02-17T08:39:47.669Z,55.89
2019-02-17T08:42:19.714Z,55.72
2019-02-17T08:44:51.498Z,55.89
2019-02-17T08:47:23.365Z,56.03
2019-02-17T08:49:55.164Z,55.98
2019-02-17T08:52:27.274Z,56.64
2019-02-17T08:54:59.109Z,57.04
2019-02-17T08:57:31.196Z,56.31
2019-02-17T09:00:03.093Z,56.46
2019-02-17T09:02:35.938Z,55.89
2019-02-17T09:05:08.075Z,55.42
2019-02-17T09:07:39.938Z,54.67
2019-02-17T09:10:12.717Z,54.53
2019-02-17T09:12:45.129Z,54.44
2019-02-17T09:15:17.090Z,54.47
2019-02-17T09:17:49.167Z,54.64
2019-02-17T09:20:21.067Z,54.98
2019-02-17T09:22:53.189Z,54.89
2019-02-17T09:25:24.994Z,54.52
2019-02-17T09:27:56.870Z,54.68
2019-02-17T09:30:28.721Z,54.64
2019-02-17T09:33:02.049Z,54.06
2019-02-17T09:35:33.870Z,54.17
2019-02-17T09:38:06.350Z,54.00
2019-02-17T09:40:38.095Z,54.14
2019-02-17T09:43:09.920Z,54.92
2019-02-17T09:45:41.705Z,54.56
2019-02-17T09:48:13.944Z,54.60
2019-02-17T09:50:45.754Z,54.66
2019-02-17T09:53:19.133Z,54.85
2019-02-17T09:55:51.149Z,54.93
2019-02-17T09:58:23.077Z,55.16
2019-02-17T10:00:54.946Z,55.35
2019-02-17T10:03:26.793Z,55.14
2019-02-17T10:05:58.617Z,55.33
2019-02-17T10:08:30.495Z,55.57
2019-02-17T10:11:02.433Z,55.54
2019-02-17T10:13:34.508Z,55.54
2019-02-17T10:16:06.293Z,55.37
2019-02-17T10:18:38.381Z,55.28
2019-02-17T10:21:10.167Z,55.18
2019-02-17T10:23:42.071Z,55.16
2019-02-17T10:26:13.861Z,55.47
2019-02-17T10:28:45.772Z,55.54
2019-02-17T10:31:17.651Z,55.71
2019-02-17T10:33:49.884Z,55.56
2019-02-17T10:36:21.780Z,55.43
2019-02-17T10:38:53.696Z,55.49
2019-02-17T10:41:25.595Z,55.08
2019-02-17T10:43:57.874Z,54.99
2019-02-17T10:46:29.727Z,55.79
2019-02-17T10:49:02.020Z,56.14
2019-02-17T10:51:33.819Z,55.89
2019-02-17T10:54:05.946Z,56.42
2019-02-17T10:56:37.961Z,56.47
2019-02-17T10:59:09.957Z,56.56
2019-02-17T11:01:41.862Z,56.93
2019-02-17T11:04:14.096Z,56.96
2019-02-17T11:06:45.931Z,58.02
2019-02-17T11:09:21.382Z,57.76
2019-02-17T11:11:53.487Z,58.10
2019-02-17T11:14:25.552Z,58.15
2019-02-17T11:16:57.406Z,58.48
2019-02-17T11:19:29.676Z,58.28
2019-02-17T11:22:04.490Z,58.16
2019-02-17T11:24:36.409Z,57.95
2019-02-17T11:27:08.198Z,58.06
2019-02-17T11:29:40.418Z,57.67
2019-02-17T11:32:12.193Z,57.67
2019-02-17T11:34:44.066Z,58.35
2019-02-17T11:37:15.906Z,57.97
2019-02-17T11:39:47.782Z,58.26
2019-02-17T11:42:19.582Z,58.30
2019-02-17T11:44:51.466Z,58.60
2019-02-17T11:47:23.432Z,58.46
2019-02-17T11:49:55.278Z,58.25
2019-02-17T11:52:27.134Z,58.31
2019-02-17T11:54:59.220Z,58.12
2019-02-17T11:57:31.114Z,57.90
2019-02-17T12:00:03.335Z,57.79
2019-02-17T12:02:36.881Z,57.87
2019-02-17T12:05:09.927Z,58.12
2019-02-17T12:07:41.782Z,57.63
2019-02-17T12:10:14.182Z,57.52
2019-02-17T12:12:46.350Z,57.27
2019-02-17T12:15:18.503Z,56.90
2019-02-17T12:17:50.319Z,57.30
2019-02-17T12:20:41.687Z,57.23
2019-02-17T12:23:17.575Z,57.24
2019-02-17T12:25:56.662Z,57.26
2019-02-17T12:28:35.638Z,57.50
2019-02-17T12:31:08.067Z,57.99
2019-02-17T12:33:41.656Z,58.09
2019-02-17T12:36:13.622Z,57.94
2019-02-17T12:38:45.414Z,58.00
2019-02-17T12:41:17.251Z,58.00
2019-02-17T12:43:51.652Z,58.29
2019-02-17T12:46:23.640Z,58.33
2019-02-17T12:48:55.459Z,58.39
2019-02-17T12:51:28.806Z,58.54
2019-02-17T12:54:00.655Z,58.57
2019-02-17T12:56:32.472Z,58.64
2019-02-17T12:59:04.317Z,58.66
2019-02-17T13:01:36.265Z,58.69
2019-02-17T13:04:08.058Z,58.84
2019-02-17T13:06:40.216Z,58.78
2019-02-17T13:09:11.992Z,59.14
2019-02-17T13:11:44.108Z,58.95
2019-02-17T13:14:15.893Z,58.68
2019-02-17T13:16:47.943Z,58.52
2019-02-17T13:19:19.707Z,58.52
2019-02-17T13:21:51.867Z,58.53
2019-02-17T13:24:27.617Z,58.62
2019-02-17T13:26:59.943Z,58.67
2019-02-17T13:29:31.803Z,59.11
2019-02-17T13:32:03.718Z,59.69
2019-02-17T13:34:35.656Z,59.55
2019-02-17T13:37:07.948Z,59.66
2019-02-17T13:39:39.786Z,59.64
2019-02-17T13:42:11.858Z,59.84
2019-02-17T13:44:43.771Z,60.20
2019-02-17T13:47:15.664Z,60.26
2019-02-17T13:49:47.479Z,60.29
2019-02-17T13:52:19.520Z,60.13
2019-02-17T13:54:51.397Z,60.04
2019-02-17T13:57:23.284Z,60.05
2019-02-17T13:59:55.159Z,59.76
2019-02-17T14:02:27.268Z,59.41
2019-02-17T14:04:59.252Z,59.84
2019-02-17T14:07:31.614Z,60.27
2019-02-17T14:10:03.458Z,60.87
2019-02-17T14:12:35.634Z,61.08
2019-02-17T14:15:10.536Z,61.08
2019-02-17T14:17:42.633Z,61.19
2019-02-17T14:20:14.570Z,61.12
2019-02-17T14:22:47.185Z,61.02
2019-02-17T14:25:18.979Z,61.10
2019-02-17T14:27:50.992Z,61.21
2019-02-17T14:30:22.823Z,61.29
2019-02-17T14:32:54.817Z,61.37
2019-02-17T14:35:26.665Z,61.41
2019-02-17T14:37:59.050Z,61.61
2019-02-17T14:40:31.063Z,61.65
2019-02-17T14:43:03.299Z,61.61
2019-02-17T14:45:35.107Z,61.69
2019-02-17T14:48:07.083Z,61.92
2019-02-17T14:50:39.061Z,61.92
2019-02-17T14:53:11.218Z,61.78
2019-02-17T14:55:43.026Z,61.96
2019-02-17T14:58:15.068Z,62.06
2019-02-17T15:00:47.013Z,62.03
2019-02-17T15:03:22.487Z,62.09
2019-02-17T15:05:54.495Z,62.17
2019-02-17T15:08:26.912Z,62.26
2019-02-17T15:10:58.735Z,62.22
2019-02-17T15:13:30.675Z,62.27
2019-02-17T15:16:02.532Z,62.39
2019-02-17T15:18:34.564Z,62.22
2019-02-17T15:21:06.423Z,62.27
2019-02-17T15:23:40.741Z,62.29
2019-02-17T15:26:12.422Z,62.29
2019-02-17T15:28:50.669Z,62.30
2019-02-17T15:31:17.847Z,62.29
2019-02-17T15:33:50.027Z,62.19
2019-02-17T15:36:21.853Z,62.04
2019-02-17T15:38:53.858Z,62.10
2019-02-17T15:41:25.683Z,62.17
2019-02-17T15:43:58.704Z,62.30
2019-02-17T15:46:30.616Z,62.34
2019-02-17T15:49:02.496Z,62.17
2019-02-17T15:51:34.446Z,61.98
2019-02-17T15:54:09.187Z,61.97
2019-02-17T15:56:40.983Z,61.94
2019-02-17T15:59:13.047Z,61.85
2019-02-17T16:01:44.889Z,61.76
2019-02-17T16:04:27.853Z,61.80
2019-02-17T16:06:52.032Z,61.94
2019-02-17T16:09:24.510Z,62.08
2019-02-17T16:11:56.360Z,61.97
2019-02-17T16:14:28.311Z,61.96
2019-02-17T16:17:00.112Z,61.92
2019-02-17T16:19:33.698Z,61.99
2019-02-17T16:22:05.478Z,62.07
2019-02-17T16:24:38.056Z,62.14
2019-02-17T16:27:09.907Z,62.32
2019-02-17T16:29:41.950Z,62.37
2019-02-17T16:32:13.843Z,62.42
2019-02-17T16:34:45.672Z,62.53
2019-02-17T16:37:17.637Z,62.60
2019-02-17T16:39:49.464Z,62.71
2019-02-17T16:42:21.315Z,62.85
2019-02-17T16:44:53.294Z,62.96
2019-02-17T16:47:25.264Z,63.02
2019-02-17T16:49:58.698Z,63.08
2019-02-17T16:52:30.545Z,63.16
2019-02-17T16:55:07.791Z,63.25
2019-02-17T16:57:39.613Z,63.37
2019-02-17T17:00:16.313Z,63.46
2019-02-17T17:02:48.226Z,63.40
2019-02-17T17:05:20.390Z,63.46
2019-02-17T17:07:55.193Z,63.50
2019-02-17T17:10:27.351Z,63.58
2019-02-17T17:12:59.283Z,63.66
2019-02-17T17:15:32.862Z,63.67
2019-02-17T17:18:04.757Z,63.71
2019-02-17T17:20:36.729Z,63.67
2019-02-17T17:23:08.680Z,63.66
2019-02-17T17:25:41.223Z,63.63
2019-02-17T17:28:13.021Z,63.67
2019-02-17T17:30:45.666Z,63.60
2019-02-17T17:33:17.472Z,63.52
2019-02-17T17:35:49.472Z,63.54
2019-02-17T17:38:21.285Z,63.51
2019-02-17T17:40:53.331Z,63.43
2019-02-17T17:43:25.181Z,63.19
2019-02-17T17:46:04.215Z,63.12
2019-02-17T17:48:36.148Z,63.02
2019-02-17T17:51:08.458Z,63.00
2019-02-17T17:53:40.259Z,63.03
2019-02-17T17:56:12.371Z,63.04
2019-02-17T17:58:44.275Z,63.14
2019-02-17T18:01:16.506Z,63.17
2019-02-17T18:03:48.341Z,63.24
2019-02-17T18:06:21.224Z,63.33
2019-02-17T18:08:53.097Z,63.35
2019-02-17T18:11:25.179Z,63.36
2019-02-17T18:13:56.950Z,63.47
2019-02-17T18:16:28.838Z,63.60
2019-02-17T18:19:00.652Z,63.74
2019-02-17T18:21:32.602Z,63.84
2019-02-17T18:24:04.395Z,63.88
2019-02-17T18:26:36.688Z,63.97
2019-02-17T18:29:08.570Z,64.11
2019-02-17T18:31:40.785Z,64.18
2019-02-17T18:34:12.589Z,64.20
2019-02-17T18:36:44.810Z,64.22
2019-02-17T18:39:16.735Z,64.32
2019-02-17T18:41:48.741Z,64.32
2019-02-17T18:44:20.538Z,64.37
2019-02-17T18:46:52.662Z,64.43
2019-02-17T18:49:24.556Z,64.47
2019-02-17T18:51:56.682Z,64.49
2019-02-17T18:54:28.568Z,64.52
2019-02-17T18:57:08.247Z,64.59
2019-02-17T18:59:37.891Z,64.69
2019-02-17T19:02:10.207Z,64.81
2019-02-17T19:04:42.088Z,64.80
2019-02-17T19:07:14.216Z,64.81
2019-02-17T19:09:46.025Z,64.78
2019-02-17T19:12:18.468Z,64.75
2019-02-17T19:14:50.306Z,64.74
2019-02-17T19:17:22.491Z,64.69
2019-02-17T19:19:54.424Z,64.66
2019-02-17T19:22:26.468Z,64.72
2019-02-17T19:24:58.396Z,64.77
2019-02-17T19:27:30.409Z,64.80
2019-02-17T19:30:04.687Z,64.93
2019-02-17T19:32:36.749Z,64.97
2019-02-17T19:35:10.645Z,64.97
2019-02-17T19:37:42.902Z,64.88
2019-02-17T19:40:15.073Z,64.94
2019-02-17T19:42:47.405Z,64.93
2019-02-17T19:45:19.318Z,64.97
2019-02-17T19:47:51.704Z,64.95
2019-02-17T19:50:24.301Z,64.91
2019-02-17T19:52:56.431Z,64.75
2019-02-17T19:55:28.312Z,64.66
2019-02-17T19:58:00.668Z,64.78
2019-02-17T20:00:32.820Z,64.88
2019-02-17T20:03:22.108Z,64.94
2019-02-17T20:05:59.812Z,64.92
2019-02-17T20:08:31.769Z,64.94
2019-02-17T20:11:03.623Z,65.00
2019-02-17T20:13:36.102Z,64.97
2019-02-17T20:16:08.234Z,64.95
2019-02-17T20:18:40.324Z,64.80
2019-02-17T20:21:12.233Z,64.84
2019-02-17T20:23:44.370Z,64.77
2019-02-17T20:26:16.256Z,64.76
2019-02-17T20:28:48.413Z,64.75
2019-02-17T20:31:20.235Z,64.89
2019-02-17T20:33:52.312Z,65.02
2019-02-17T20:36:24.192Z,64.95
2019-02-17T20:38:56.106Z,64.76
2019-02-17T20:41:28.681Z,64.66
2019-02-17T20:44:00.990Z,64.79
2019-02-17T20:46:32.959Z,64.87
2019-02-17T20:49:05.345Z,64.92
2019-02-17T20:51:37.233Z,65.08
2019-02-17T20:54:10.682Z,65.16
2019-02-17T20:56:42.534Z,65.23
2019-02-17T20:59:14.706Z,65.26
2019-02-17T21:01:46.557Z,65.16
2019-02-17T21:04:18.749Z,65.26
2019-02-17T21:06:50.541Z,65.22
2019-02-17T21:09:22.550Z,65.29
2019-02-17T21:11:54.517Z,65.40
2019-02-17T21:14:26.996Z,65.33
2019-02-17T21:16:58.869Z,65.12
2019-02-17T21:19:30.986Z,64.95
2019-02-17T21:22:02.983Z,64.92
2019-02-17T21:24:35.166Z,64.89
2019-02-17T21:27:07.973Z,65.03
2019-02-17T21:29:40.328Z,65.06
2019-02-17T21:32:12.219Z,65.25
2019-02-17T21:34:44.461Z,65.41
2019-02-17T21:37:16.306Z,65.41
2019-02-17T21:39:48.227Z,65.43
2019-02-17T21:42:21.013Z,65.46
2019-02-17T21:44:53.017Z,65.54
2019-02-17T21:47:24.790Z,65.53
2019-02-17T21:49:56.937Z,65.47
2019-02-17T21:52:28.725Z,65.27
2019-02-17T21:55:00.608Z,65.15
2019-02-17T21:57:34.674Z,65.20
2019-02-17T22:00:08.061Z,65.23
2019-02-17T22:02:40.608Z,65.31
2019-02-17T22:05:12.609Z,65.40
2019-02-17T22:07:46.212Z,65.47
2019-02-17T22:10:20.092Z,65.47
2019-02-17T22:12:52.192Z,65.55
2019-02-17T22:15:24.460Z,65.83
2019-02-17T22:17:56.305Z,66.17
2019-02-17T22:20:28.498Z,66.21
2019-02-17T22:23:00.352Z,66.16
2019-02-17T22:25:32.424Z,66.32
2019-02-17T22:28:04.240Z,66.33
2019-02-17T22:30:39.114Z,66.40
2019-02-17T22:33:13.950Z,66.38
2019-02-17T22:35:46.131Z,66.62
2019-02-17T22:38:17.972Z,66.70
2019-02-17T22:40:52.269Z,66.67
2019-02-17T22:43:24.078Z,66.63
2019-02-17T22:45:56.443Z,66.67
2019-02-17T22:48:28.344Z,66.79
2019-02-17T22:51:00.360Z,66.80
2019-02-17T22:53:32.219Z,66.77
2019-02-17T22:56:07.258Z,66.74
2019-02-17T22:58:39.132Z,66.75
2019-02-17T23:01:15.901Z,66.80
2019-02-17T23:03:49.291Z,66.79
2019-02-17T23:06:21.421Z,66.88
2019-02-17T23:08:53.383Z,66.99
2019-02-17T23:11:25.345Z,67.04
2019-02-17T23:13:57.173Z,67.07
2019-02-17T23:16:29.718Z,67.06
2019-02-17T23:19:01.549Z,67.03
2019-02-17T23:21:33.382Z,67.01
2019-02-17T23:24:05.224Z,67.07
2019-02-17T23:26:37.111Z,67.11
2019-02-17T23:29:09.167Z,67.09
2019-02-17T23:31:41.207Z,67.07
2019-02-17T23:34:13.007Z,67.12
2019-02-17T23:36:45.085Z,67.16
2019-02-17T23:39:16.914Z,67.22
2019-02-17T23:41:48.741Z,67.22
2019-02-17T23:44:21.204Z,67.18
2019-02-17T23:46:53.207Z,67.20
2019-02-17T23:49:25.004Z,67.29
2019-02-17T23:51:57.770Z,67.32
2019-02-17T23:54:29.601Z,67.33
2019-02-17T23:57:01.543Z,67.43
2019-02-17T23:59:33.384Z,67.51
